createdAt,value
2019-01-19T00:01:49.633Z,20.32
2019-01-19T00:04:45.989Z,33.70
2019-01-19T00:07:37.715Z,26.15
2019-01-19T00:10:41.908Z,25.95
2019-01-19T00:13:29.107Z,30.55
2019-01-19T00:16:07.330Z,23.77
2019-01-19T00:19:09.955Z,21.37
2019-01-19T00:22:01.908Z,24.25
2019-01-19T00:24:49.258Z,28.75
2019-01-19T00:27:45.498Z,24.43
2019-01-19T00:30:38.788Z,24.95
2019-01-19T00:33:35.083Z,20.40
2019-01-19T00:36:19.245Z,30.10
2019-01-19T00:39:22.089Z,22.42
2019-01-19T00:42:06.032Z,22.10
2019-01-19T00:44:47.167Z,24.07
2019-01-19T00:47:31.316Z,24.32
2019-01-19T00:50:15.462Z,25.50
2019-01-19T00:52:51.962Z,27.48
2019-01-19T00:55:42.138Z,33.48
2019-01-19T00:58:32.688Z,21.42
2019-01-19T01:01:13.751Z,16.67
2019-01-19T01:04:08.725Z,21.97
2019-01-19T01:07:02.136Z,21.95
2019-01-19T01:09:46.485Z,21.77
2019-01-19T01:12:53.816Z,29.45
2019-01-19T01:15:59.690Z,22.15
2019-01-19T01:18:46.888Z,22.95
2019-01-19T01:21:39.941Z,23.40
2019-01-19T01:24:30.389Z,24.12
2019-01-19T01:27:20.702Z,27.55
2019-01-19T01:30:34.340Z,24.63
2019-01-19T01:33:15.412Z,29.55
2019-01-19T01:35:56.479Z,23.35
2019-01-19T01:38:43.515Z,20.88
2019-01-19T01:41:50.292Z,21.10
2019-01-19T01:44:25.633Z,20.50
2019-01-19T01:47:32.839Z,22.90
2019-01-19T01:50:13.790Z,27.87
2019-01-19T01:53:03.621Z,40.83
2019-01-19T01:55:37.414Z,34.70
2019-01-19T01:58:18.543Z,22.58
2019-01-19T02:00:53.955Z,33.30
2019-01-19T02:04:04.238Z,18.35
2019-01-19T02:07:09.847Z,29.10
2019-01-19T02:10:03.459Z,22.22
2019-01-19T02:13:11.638Z,22.45
2019-01-19T02:15:55.343Z,28.70
2019-01-19T02:18:36.668Z,29.23
2019-01-19T02:21:20.704Z,22.20
2019-01-19T02:24:02.117Z,28.05
2019-01-19T02:26:58.658Z,25.48
2019-01-19T02:29:52.116Z,18.70
2019-01-19T02:32:39.299Z,22.67
2019-01-19T02:35:48.348Z,28.60
2019-01-19T02:38:39.939Z,19.17
2019-01-19T02:41:26.606Z,18.23
2019-01-19T02:44:04.676Z,25.45
2019-01-19T02:47:14.871Z,25.32
2019-01-19T02:50:05.571Z,25.97
2019-01-19T02:53:03.383Z,21.97
2019-01-19T02:55:54.118Z,32.78
2019-01-19T02:58:57.418Z,23.35
2019-01-19T03:01:38.521Z,20.10
2019-01-19T03:04:24.267Z,25.35
2019-01-19T03:07:26.904Z,25.62
2019-01-19T03:10:37.060Z,24.80
2019-01-19T03:13:20.979Z,26.93
2019-01-19T03:16:17.728Z,25.05
2019-01-19T03:18:59.033Z,22.67
2019-01-19T03:21:49.179Z,28.10
2019-01-19T03:24:43.993Z,30.25
2019-01-19T03:27:48.002Z,26.93
2019-01-19T03:30:39.350Z,25.25
2019-01-19T03:33:32.695Z,25.88
2019-01-19T03:36:38.246Z,27.17
2019-01-19T03:39:53.838Z,36.55
2019-01-19T03:42:47.327Z,31.62
2019-01-19T03:45:43.736Z,23.42
2019-01-19T03:48:57.254Z,33.70
2019-01-19T03:51:44.549Z,28.30
2019-01-19T03:54:32.626Z,46.33
2019-01-19T03:57:08.002Z,24.45
2019-01-19T03:59:55.232Z,25.17
2019-01-19T04:02:42.379Z,25.45
2019-01-19T04:05:35.556Z,25.85
2019-01-19T04:08:28.859Z,27.95
2019-01-19T04:11:44.718Z,29.67
2019-01-19T04:14:47.106Z,27.85
2019-01-19T04:18:00.299Z,36.53
2019-01-19T04:21:12.046Z,45.20
2019-01-19T04:23:47.552Z,39.83
2019-01-19T04:26:21.881Z,41.28
2019-01-19T04:28:53.080Z,45.67
2019-01-19T04:31:23.990Z,36.13
2019-01-19T04:33:55.545Z,33.60
2019-01-19T04:36:26.955Z,38.40
2019-01-19T04:38:58.067Z,29.42
2019-01-19T04:41:28.971Z,38.05
2019-01-19T04:43:59.855Z,34.85
2019-01-19T04:46:30.921Z,37.70
2019-01-19T04:49:02.010Z,38.13
2019-01-19T04:51:32.916Z,29.75
2019-01-19T04:54:03.902Z,31.42
2019-01-19T04:56:34.883Z,39.58
2019-01-19T04:59:05.772Z,31.50
2019-01-19T05:01:36.752Z,28.30
2019-01-19T05:04:07.661Z,31.27
2019-01-19T05:06:39.648Z,36.75
2019-01-19T05:09:10.601Z,38.02
2019-01-19T05:11:41.576Z,27.50
2019-01-19T05:14:12.454Z,61.10
2019-01-19T05:16:43.378Z,39.42
2019-01-19T05:19:14.295Z,43.87
2019-01-19T05:21:45.139Z,50.55
2019-01-19T05:24:16.120Z,33.33
2019-01-19T05:26:47.172Z,26.52
2019-01-19T05:29:18.097Z,36.38
2019-01-19T05:31:49.011Z,36.42
2019-01-19T05:34:19.920Z,25.70
2019-01-19T05:36:50.915Z,30.10
2019-01-19T05:39:21.859Z,28.05
2019-01-19T05:41:52.763Z,28.02
2019-01-19T05:44:25.284Z,31.97
2019-01-19T05:46:56.121Z,29.85
2019-01-19T05:49:27.001Z,32.65
2019-01-19T05:51:57.910Z,41.85
2019-01-19T05:54:28.729Z,31.65
2019-01-19T05:56:59.644Z,38.58
2019-01-19T05:59:30.451Z,35.30
2019-01-19T06:02:01.563Z,25.30
2019-01-19T06:04:32.392Z,29.50
2019-01-19T06:07:03.303Z,26.95
2019-01-19T06:09:34.168Z,29.70
2019-01-19T06:12:05.081Z,27.17
2019-01-19T06:14:35.960Z,29.00
2019-01-19T06:17:06.934Z,35.55
2019-01-19T06:19:38.119Z,35.50
2019-01-19T06:22:09.398Z,26.37
2019-01-19T06:24:40.312Z,34.18
2019-01-19T06:27:11.258Z,29.32
2019-01-19T06:29:42.151Z,41.42
2019-01-19T06:32:13.048Z,30.60
2019-01-19T06:34:43.956Z,29.98
2019-01-19T06:37:14.927Z,30.52
2019-01-19T06:39:45.809Z,33.63
2019-01-19T06:42:16.795Z,33.18
2019-01-19T06:44:47.688Z,33.70
2019-01-19T06:47:18.531Z,32.78
2019-01-19T06:49:49.482Z,33.30
2019-01-19T06:52:20.330Z,30.68
2019-01-19T06:54:51.135Z,31.15
2019-01-19T06:57:22.121Z,36.48
2019-01-19T06:59:52.998Z,29.02
2019-01-19T07:02:23.906Z,33.63
2019-01-19T07:04:54.802Z,30.85
2019-01-19T07:07:25.784Z,29.67
2019-01-19T07:09:56.665Z,41.50
2019-01-19T07:12:27.559Z,40.20
2019-01-19T07:14:58.376Z,28.00
2019-01-19T07:17:29.283Z,36.65
2019-01-19T07:20:00.218Z,36.38
2019-01-19T07:22:31.058Z,32.98
2019-01-19T07:25:02.019Z,39.80
2019-01-19T07:27:32.933Z,36.25
2019-01-19T07:30:03.783Z,44.40
2019-01-19T07:32:34.596Z,35.35
2019-01-19T07:35:05.915Z,28.30
2019-01-19T07:37:36.789Z,33.55
2019-01-19T07:40:14.350Z,40.15
2019-01-19T07:42:45.796Z,37.08
2019-01-19T07:45:17.409Z,42.03
2019-01-19T07:47:48.286Z,37.45
2019-01-19T07:50:20.598Z,31.75
2019-01-19T07:52:51.482Z,40.90
2019-01-19T07:55:22.354Z,35.48
2019-01-19T07:57:53.167Z,32.70
2019-01-19T08:00:30.567Z,40.78
2019-01-19T08:03:01.573Z,32.17
2019-01-19T08:05:32.482Z,32.25
2019-01-19T08:08:03.395Z,31.45
2019-01-19T08:10:34.315Z,41.13
2019-01-19T08:13:05.124Z,36.15
2019-01-19T08:15:36.109Z,38.73
2019-01-19T08:18:06.944Z,32.90
2019-01-19T08:20:37.843Z,37.40
2019-01-19T08:23:08.653Z,32.28
2019-01-19T08:25:39.626Z,27.90
2019-01-19T08:28:10.507Z,42.08
2019-01-19T08:30:41.420Z,28.87
2019-01-19T08:33:12.302Z,33.90
2019-01-19T08:35:44.508Z,40.28
2019-01-19T08:38:17.009Z,29.85
2019-01-19T08:40:47.959Z,31.12
2019-01-19T08:43:20.483Z,30.10
2019-01-19T08:45:51.340Z,30.77
2019-01-19T08:48:22.207Z,26.80
2019-01-19T08:50:53.146Z,33.90
2019-01-19T08:53:24.161Z,30.17
2019-01-19T08:55:55.068Z,30.80
2019-01-19T08:58:26.065Z,34.13
2019-01-19T09:00:57.026Z,32.85
2019-01-19T09:03:27.952Z,29.65
2019-01-19T09:05:58.922Z,31.20
2019-01-19T09:08:29.935Z,32.03
2019-01-19T09:11:00.835Z,40.28
2019-01-19T09:13:31.790Z,28.30
2019-01-19T09:16:03.078Z,28.23
2019-01-19T09:18:34.421Z,27.58
2019-01-19T09:21:05.431Z,26.12
2019-01-19T09:23:37.945Z,31.07
2019-01-19T09:26:09.544Z,26.02
2019-01-19T09:28:40.591Z,24.23
2019-01-19T09:31:11.465Z,27.05
2019-01-19T09:33:42.395Z,27.25
2019-01-19T09:36:13.361Z,25.97
2019-01-19T09:38:44.216Z,33.45
2019-01-19T09:41:15.057Z,34.15
2019-01-19T09:43:45.934Z,31.90
2019-01-19T09:46:16.875Z,28.12
2019-01-19T09:48:47.913Z,30.70
2019-01-19T09:51:18.793Z,26.82
2019-01-19T09:53:49.722Z,28.25
2019-01-19T09:56:20.561Z,28.50
2019-01-19T09:58:51.481Z,29.77
2019-01-19T10:01:22.365Z,29.65
2019-01-19T10:03:53.335Z,30.50
2019-01-19T10:06:24.138Z,39.75
2019-01-19T10:08:55.075Z,43.65
2019-01-19T10:11:26.020Z,29.15
2019-01-19T10:13:58.071Z,32.03
2019-01-19T10:16:28.968Z,30.45
2019-01-19T10:18:59.924Z,30.52
2019-01-19T10:21:31.198Z,32.38
2019-01-19T10:24:02.251Z,32.67
2019-01-19T10:26:33.197Z,26.15
2019-01-19T10:29:04.276Z,32.83
2019-01-19T10:31:35.251Z,37.85
2019-01-19T10:34:06.200Z,27.48
2019-01-19T10:36:37.154Z,26.12
2019-01-19T10:39:09.127Z,24.12
2019-01-19T10:41:41.047Z,26.65
2019-01-19T10:44:12.293Z,28.87
2019-01-19T10:46:43.135Z,33.83
2019-01-19T10:49:14.014Z,25.82
2019-01-19T10:51:45.064Z,27.22
2019-01-19T10:54:16.051Z,19.98
2019-01-19T10:56:46.977Z,27.40
2019-01-19T10:59:17.945Z,22.52
2019-01-19T11:01:48.910Z,24.10
2019-01-19T11:04:19.872Z,45.12
2019-01-19T11:06:50.749Z,27.95
2019-01-19T11:09:21.884Z,28.92
2019-01-19T11:11:52.754Z,23.47
2019-01-19T11:14:23.656Z,22.37
2019-01-19T11:16:54.525Z,21.37
2019-01-19T11:19:25.531Z,21.55
2019-01-19T11:21:56.491Z,21.57
2019-01-19T11:24:27.461Z,29.52
2019-01-19T11:26:58.417Z,20.97
2019-01-19T11:29:29.330Z,22.15
2019-01-19T11:32:00.198Z,25.75
2019-01-19T11:34:31.519Z,36.50
2019-01-19T11:37:02.817Z,22.13
2019-01-19T11:39:34.283Z,25.17
2019-01-19T11:42:05.321Z,24.82
2019-01-19T11:44:36.365Z,26.37
2019-01-19T11:47:07.800Z,21.10
2019-01-19T11:49:38.722Z,24.07
2019-01-19T11:52:09.681Z,34.03
2019-01-19T11:54:42.543Z,23.30
2019-01-19T11:57:13.409Z,26.12
2019-01-19T11:59:44.304Z,23.98
2019-01-19T12:02:15.122Z,34.03
2019-01-19T12:04:46.093Z,21.95
2019-01-19T12:07:18.402Z,15.65
2019-01-19T12:09:49.496Z,34.38
2019-01-19T12:12:20.435Z,26.77
2019-01-19T12:14:51.337Z,22.37
2019-01-19T12:17:22.196Z,25.62
2019-01-19T12:19:53.109Z,31.45
2019-01-19T12:22:23.973Z,23.05
2019-01-19T12:24:54.877Z,18.65
2019-01-19T12:27:25.759Z,20.50
2019-01-19T12:29:56.934Z,16.52
2019-01-19T12:32:28.065Z,14.35
2019-01-19T12:34:59.089Z,21.27
2019-01-19T12:37:29.967Z,20.77
2019-01-19T12:40:00.858Z,21.70
2019-01-19T12:42:31.805Z,18.87
2019-01-19T12:45:02.718Z,12.00
2019-01-19T12:47:33.533Z,18.67
2019-01-19T12:50:07.817Z,12.47
2019-01-19T12:52:38.801Z,14.70
2019-01-19T12:55:13.159Z,16.75
2019-01-19T12:57:44.068Z,12.05
2019-01-19T13:00:29.190Z,16.80
2019-01-19T13:03:00.102Z,10.13
2019-01-19T13:05:44.106Z,21.33
2019-01-19T13:08:22.011Z,18.52
2019-01-19T13:11:23.969Z,10.18
2019-01-19T13:14:03.072Z,8.00
2019-01-19T13:17:02.059Z,11.25
2019-01-19T13:19:51.740Z,15.83
2019-01-19T13:23:01.156Z,11.08
2019-01-19T13:25:42.526Z,22.10
2019-01-19T13:28:48.368Z,14.90
2019-01-19T13:31:38.380Z,15.72
2019-01-19T13:34:56.161Z,22.75
2019-01-19T13:37:42.863Z,13.65
2019-01-19T13:40:50.025Z,14.20
2019-01-19T13:44:00.247Z,11.73
2019-01-19T13:47:06.928Z,9.93
2019-01-19T13:50:18.601Z,9.55
2019-01-19T13:53:35.352Z,10.08
2019-01-19T13:56:19.401Z,11.33
2019-01-19T13:58:59.843Z,12.70
2019-01-19T14:02:13.182Z,11.00
2019-01-19T14:05:23.840Z,10.53
2019-01-19T14:08:24.977Z,7.55
2019-01-19T14:11:29.127Z,10.85
2019-01-19T14:14:16.207Z,9.08
2019-01-19T14:16:56.902Z,7.80
2019-01-19T14:19:52.030Z,6.60
2019-01-19T14:22:53.096Z,7.65
2019-01-19T14:25:46.639Z,9.00
2019-01-19T14:28:43.205Z,10.50
2019-01-19T14:32:02.656Z,7.12
2019-01-19T14:34:59.410Z,20.50
2019-01-19T14:38:09.291Z,6.58
2019-01-19T14:40:56.096Z,5.20
2019-01-19T14:43:55.582Z,11.15
2019-01-19T14:46:45.863Z,5.62
2019-01-19T14:49:49.446Z,11.20
2019-01-19T14:52:27.287Z,9.53
2019-01-19T14:55:08.055Z,14.87
2019-01-19T14:57:46.300Z,9.73
2019-01-19T15:00:44.181Z,15.55
2019-01-19T15:03:22.561Z,28.42
2019-01-19T15:06:03.547Z,8.08
2019-01-19T15:09:04.484Z,9.65
2019-01-19T15:12:15.717Z,5.12
2019-01-19T15:15:00.257Z,11.25
2019-01-19T15:18:06.632Z,12.30
2019-01-19T15:20:56.974Z,6.47
2019-01-19T15:23:46.860Z,10.48
2019-01-19T15:26:42.999Z,13.40
2019-01-19T15:29:20.897Z,11.30
2019-01-19T15:32:10.837Z,7.55
2019-01-19T15:35:23.506Z,9.30
2019-01-19T15:38:17.728Z,8.53
2019-01-19T15:41:27.307Z,10.65
2019-01-19T15:44:17.664Z,17.65
2019-01-19T15:47:20.035Z,20.40
2019-01-19T15:50:20.516Z,12.13
2019-01-19T15:53:01.552Z,12.43
2019-01-19T15:56:15.637Z,14.78
2019-01-19T15:58:59.657Z,14.65
2019-01-19T16:01:37.804Z,13.60
2019-01-19T16:04:39.640Z,18.20
2019-01-19T16:07:20.899Z,17.85
2019-01-19T16:10:16.787Z,19.77
2019-01-19T16:13:11.343Z,12.85
2019-01-19T16:16:02.894Z,14.40
2019-01-19T16:18:55.648Z,18.95
2019-01-19T16:22:10.885Z,19.85
2019-01-19T16:25:03.858Z,24.10
2019-01-19T16:28:02.687Z,15.83
2019-01-19T16:30:58.753Z,9.25
2019-01-19T16:33:56.129Z,17.95
2019-01-19T16:36:51.062Z,19.90
2019-01-19T16:39:29.397Z,14.05
2019-01-19T16:42:10.488Z,19.42
2019-01-19T16:44:57.623Z,19.42
2019-01-19T16:47:53.592Z,13.60
2019-01-19T16:50:48.418Z,18.62
2019-01-19T16:53:45.866Z,17.65
2019-01-19T16:56:47.998Z,29.37
2019-01-19T16:59:55.100Z,20.88
2019-01-19T17:02:50.935Z,19.15
2019-01-19T17:05:37.957Z,27.75
2019-01-19T17:08:31.421Z,22.13
2019-01-19T17:11:24.459Z,27.10
2019-01-19T17:14:14.603Z,31.80
2019-01-19T17:16:58.703Z,25.60
2019-01-19T17:20:09.860Z,22.05
2019-01-19T17:22:45.305Z,19.92
2019-01-19T17:25:31.875Z,18.60
2019-01-19T17:28:34.071Z,41.00
2019-01-19T17:31:30.114Z,23.47
2019-01-19T17:34:09.192Z,26.73
2019-01-19T17:36:47.373Z,32.13
2019-01-19T17:40:11.272Z,21.02
2019-01-19T17:43:09.886Z,25.45
2019-01-19T17:45:51.379Z,24.47
2019-01-19T17:48:44.280Z,29.07
2019-01-19T17:51:55.814Z,24.50
2019-01-19T17:54:45.888Z,24.70
2019-01-19T17:57:35.737Z,23.85
2019-01-19T18:00:16.815Z,23.95
2019-01-19T18:02:52.634Z,26.57
2019-01-19T18:05:28.284Z,20.60
2019-01-19T18:08:19.875Z,25.80
2019-01-19T18:11:20.505Z,25.65
2019-01-19T18:14:21.253Z,26.65
2019-01-19T18:17:19.165Z,25.43
2019-01-19T18:20:25.780Z,30.40
2019-01-19T18:23:35.363Z,26.62
2019-01-19T18:26:19.988Z,35.75
2019-01-19T18:29:16.737Z,28.62
2019-01-19T18:32:14.525Z,27.70
2019-01-19T18:35:08.021Z,37.58
2019-01-19T18:37:55.266Z,24.95
2019-01-19T18:40:46.979Z,29.50
2019-01-19T18:43:38.714Z,34.63
2019-01-19T18:46:14.231Z,35.08
2019-01-19T18:48:58.094Z,27.95
2019-01-19T18:51:48.224Z,44.13
2019-01-19T18:54:41.429Z,33.63
2019-01-19T18:57:49.678Z,34.30
2019-01-19T19:00:30.831Z,31.10
2019-01-19T19:03:28.406Z,28.02
2019-01-19T19:06:24.524Z,31.93
2019-01-19T19:09:19.047Z,34.73
2019-01-19T19:12:09.250Z,30.82
2019-01-19T19:14:56.562Z,25.27
2019-01-19T19:18:00.273Z,31.15
2019-01-19T19:20:53.496Z,31.37
2019-01-19T19:23:35.412Z,36.83
2019-01-19T19:26:13.642Z,26.77
2019-01-19T19:29:03.485Z,32.00
2019-01-19T19:31:47.994Z,32.42
2019-01-19T19:34:44.222Z,24.67
2019-01-19T19:37:31.583Z,32.95
2019-01-19T19:40:24.262Z,29.15
2019-01-19T19:43:05.147Z,29.25
2019-01-19T19:46:01.381Z,35.95
2019-01-19T19:48:51.717Z,35.65
2019-01-19T19:51:41.898Z,34.60
2019-01-19T19:54:13.779Z,48.10
2019-01-19T19:56:42.976Z,43.35
2019-01-19T19:59:13.822Z,55.12
2019-01-19T20:01:44.645Z,56.95
2019-01-19T20:04:15.642Z,55.03
2019-01-19T20:06:46.654Z,48.68
2019-01-19T20:09:17.666Z,49.15
2019-01-19T20:11:48.809Z,50.50
2019-01-19T20:14:23.387Z,50.60
2019-01-19T20:16:54.299Z,54.98
2019-01-19T20:19:25.329Z,77.53
2019-01-19T20:21:56.443Z,52.25
2019-01-19T20:24:27.439Z,47.00
2019-01-19T20:26:59.412Z,57.83
2019-01-19T20:29:30.400Z,65.50
2019-01-19T20:32:01.370Z,52.33
2019-01-19T20:34:32.305Z,53.60
2019-01-19T20:37:03.293Z,56.68
2019-01-19T20:39:34.260Z,51.18
2019-01-19T20:42:05.661Z,59.03
2019-01-19T20:44:36.599Z,75.08
2019-01-19T20:47:07.581Z,48.92
2019-01-19T20:49:38.522Z,55.73
2019-01-19T20:52:09.531Z,49.03
2019-01-19T20:54:40.476Z,47.73
2019-01-19T20:57:11.315Z,51.25
2019-01-19T20:59:42.269Z,47.62
2019-01-19T21:02:13.251Z,49.38
2019-01-19T21:04:44.227Z,54.15
2019-01-19T21:07:15.318Z,73.45
2019-01-19T21:09:46.255Z,53.92
2019-01-19T21:12:19.171Z,41.15
2019-01-19T21:14:49.952Z,48.63
2019-01-19T21:17:20.982Z,48.83
2019-01-19T21:19:51.863Z,55.58
2019-01-19T21:22:22.774Z,62.33
2019-01-19T21:24:53.727Z,46.25
2019-01-19T21:27:24.649Z,55.00
2019-01-19T21:29:55.668Z,65.60
2019-01-19T21:32:26.644Z,41.50
2019-01-19T21:34:57.722Z,51.50
2019-01-19T21:37:28.698Z,51.30
2019-01-19T21:39:59.582Z,62.67
2019-01-19T21:42:30.563Z,44.25
2019-01-19T21:45:01.431Z,50.92
2019-01-19T21:47:32.344Z,50.25
2019-01-19T21:50:03.382Z,44.35
2019-01-19T21:52:34.334Z,52.45
2019-01-19T21:55:07.674Z,52.10
2019-01-19T21:57:38.724Z,48.63
2019-01-19T22:00:16.988Z,51.02
2019-01-19T22:02:48.831Z,45.23
2019-01-19T22:05:19.791Z,43.30
2019-01-19T22:07:50.834Z,63.10
2019-01-19T22:10:23.643Z,47.05
2019-01-19T22:12:54.538Z,45.80
2019-01-19T22:15:25.506Z,73.45
2019-01-19T22:17:56.507Z,43.55
2019-01-19T22:20:27.463Z,43.98
2019-01-19T22:22:58.451Z,41.10
2019-01-19T22:25:29.506Z,53.25
2019-01-19T22:28:00.492Z,44.40
2019-01-19T22:30:31.477Z,37.55
2019-01-19T22:33:03.696Z,37.35
2019-01-19T22:35:34.865Z,51.10
2019-01-19T22:38:05.972Z,42.88
2019-01-19T22:40:36.948Z,38.02
2019-01-19T22:43:07.826Z,37.73
2019-01-19T22:45:38.698Z,28.95
2019-01-19T22:48:09.629Z,39.60
2019-01-19T22:50:40.867Z,31.10
2019-01-19T22:53:11.814Z,61.05
2019-01-19T22:55:42.683Z,36.53
2019-01-19T22:58:13.566Z,40.25
2019-01-19T23:01:05.722Z,40.03
2019-01-19T23:03:37.817Z,42.70
2019-01-19T23:06:08.731Z,27.00
2019-01-19T23:08:39.617Z,37.30
2019-01-19T23:11:10.617Z,28.25
2019-01-19T23:13:41.509Z,30.77
2019-01-19T23:16:12.492Z,33.75
2019-01-19T23:18:43.532Z,28.95
2019-01-19T23:21:14.530Z,42.67
2019-01-19T23:23:45.409Z,27.77
2019-01-19T23:26:16.713Z,39.20
2019-01-19T23:28:47.649Z,39.95
2019-01-19T23:31:18.510Z,33.30
2019-01-19T23:33:49.522Z,32.73
2019-01-19T23:36:20.441Z,38.33
2019-01-19T23:38:51.286Z,26.75
2019-01-19T23:41:22.267Z,35.38
2019-01-19T23:43:53.220Z,54.00
2019-01-19T23:46:24.111Z,40.28
2019-01-19T23:48:55.135Z,32.88
2019-01-19T23:51:26.025Z,55.28
2019-01-19T23:53:56.938Z,36.70
2019-01-19T23:56:27.748Z,32.05
2019-01-19T23:58:58.736Z,48.30
